createdAt,value
2023-02-24T00:01:16.984Z,2.45
2023-02-24T00:03:48.567Z,2.25
2023-02-24T00:06:20.279Z,2.42
2023-02-24T00:08:52.351Z,2.53
2023-02-24T00:11:23.901Z,2.30
2023-02-24T00:13:55.442Z,2.10
2023-02-24T00:16:27.185Z,2.03
2023-02-24T00:18:58.873Z,2.22
2023-02-24T00:21:30.602Z,2.33
2023-02-24T00:24:02.241Z,2.70
2023-02-24T00:26:33.819Z,2.83
2023-02-24T00:29:08.315Z,2.53
2023-02-24T00:31:40.234Z,2.47
2023-02-24T00:34:11.829Z,2.17
2023-02-24T00:36:43.342Z,2.00
2023-02-24T00:39:15.088Z,2.30
2023-02-24T00:41:46.644Z,2.30
2023-02-24T00:44:18.226Z,2.30
2023-02-24T00:46:49.947Z,2.38
2023-02-24T00:49:21.478Z,2.10
2023-02-24T00:51:53.036Z,2.15
2023-02-24T00:54:25.205Z,1.63
2023-02-24T00:56:56.769Z,2.00
2023-02-24T00:59:28.685Z,2.20
2023-02-24T01:02:00.432Z,2.70
2023-02-24T01:04:31.932Z,2.03
2023-02-24T01:07:03.353Z,1.60
2023-02-24T01:09:34.766Z,1.92
2023-02-24T01:12:09.304Z,2.28
2023-02-24T01:14:40.737Z,1.70
2023-02-24T01:17:12.195Z,2.30
2023-02-24T01:19:44.590Z,1.90
2023-02-24T01:22:17.872Z,2.13
2023-02-24T01:24:49.456Z,2.08
2023-02-24T01:27:20.949Z,1.73
2023-02-24T01:29:52.402Z,1.90
2023-02-24T01:32:24.019Z,1.80
2023-02-24T01:34:55.600Z,2.27
2023-02-24T01:37:28.617Z,1.80
2023-02-24T01:40:00.051Z,1.88
2023-02-24T01:42:31.505Z,1.52
2023-02-24T01:45:07.399Z,1.70
2023-02-24T01:47:39.456Z,2.00
2023-02-24T01:50:11.359Z,1.80
2023-02-24T01:52:46.229Z,1.70
2023-02-24T01:55:24.449Z,1.95
2023-02-24T01:57:57.567Z,1.90
2023-02-24T02:00:29.273Z,1.70
2023-02-24T02:03:05.696Z,2.00
2023-02-24T02:05:39.547Z,1.85
2023-02-24T02:08:11.292Z,1.75
2023-02-24T02:10:42.860Z,1.48
2023-02-24T02:13:16.790Z,1.50
2023-02-24T02:16:08.400Z,1.70
2023-02-24T02:18:48.204Z,1.58
2023-02-24T02:21:22.905Z,1.90
2023-02-24T02:24:04.089Z,1.90
2023-02-24T02:27:01.240Z,1.80
2023-02-24T02:29:49.943Z,1.80
2023-02-24T02:32:41.883Z,1.90
2023-02-24T02:35:22.229Z,1.60
2023-02-24T02:38:02.780Z,1.85
2023-02-24T02:40:39.141Z,1.93
2023-02-24T02:43:28.668Z,2.00
2023-02-24T02:46:09.682Z,1.30
2023-02-24T02:48:54.853Z,1.70
2023-02-24T02:51:35.427Z,1.73
2023-02-24T02:54:22.244Z,1.57
2023-02-24T02:57:17.057Z,1.77
2023-02-24T02:59:58.359Z,1.70
2023-02-24T03:02:33.305Z,1.65
2023-02-24T03:05:07.221Z,1.48
2023-02-24T03:07:44.196Z,1.70
2023-02-24T03:10:20.970Z,1.40
2023-02-24T03:12:55.637Z,1.42
2023-02-24T03:15:30.466Z,1.50
2023-02-24T03:18:09.402Z,1.27
2023-02-24T03:20:54.688Z,1.40
2023-02-24T03:23:28.867Z,1.40
2023-02-24T03:26:20.903Z,1.70
2023-02-24T03:29:29.332Z,1.35
2023-02-24T03:32:04.924Z,1.60
2023-02-24T03:34:44.028Z,1.70
2023-02-24T03:37:15.591Z,1.58
2023-02-24T03:39:47.096Z,1.50
2023-02-24T03:42:20.198Z,1.70
2023-02-24T03:44:51.859Z,1.20
2023-02-24T03:47:23.315Z,1.52
2023-02-24T03:49:54.726Z,1.70
2023-02-24T03:52:40.611Z,1.30
2023-02-24T03:55:34.150Z,1.33
2023-02-24T03:58:33.577Z,1.50
2023-02-24T04:01:09.588Z,1.63
2023-02-24T04:04:10.015Z,1.20
2023-02-24T04:07:04.163Z,1.70
2023-02-24T04:10:05.375Z,1.80
2023-02-24T04:12:43.634Z,1.57
2023-02-24T04:15:23.741Z,1.77
2023-02-24T04:17:59.682Z,1.95
2023-02-24T04:20:34.116Z,1.77
2023-02-24T04:23:11.584Z,2.30
2023-02-24T04:25:47.179Z,1.85
2023-02-24T04:28:21.403Z,2.47
2023-02-24T04:30:59.204Z,2.50
2023-02-24T04:33:30.721Z,2.40
2023-02-24T04:36:02.614Z,2.50
2023-02-24T04:38:34.108Z,3.30
2023-02-24T04:41:05.572Z,2.83
2023-02-24T04:43:36.995Z,2.87
2023-02-24T04:46:08.438Z,3.33
2023-02-24T04:48:39.944Z,3.47
2023-02-24T04:51:12.406Z,3.25
2023-02-24T04:53:43.847Z,3.43
2023-02-24T04:56:15.285Z,3.20
2023-02-24T04:58:46.675Z,3.37
2023-02-24T05:01:18.363Z,2.95
2023-02-24T05:03:49.961Z,3.50
2023-02-24T05:06:21.462Z,3.00
2023-02-24T05:08:52.922Z,2.42
2023-02-24T05:11:24.445Z,3.20
2023-02-24T05:13:55.941Z,2.80
2023-02-24T05:16:27.470Z,3.70
2023-02-24T05:18:59.014Z,2.88
2023-02-24T05:21:30.432Z,3.35
2023-02-24T05:24:02.297Z,3.40
2023-02-24T05:26:36.264Z,3.15
2023-02-24T05:29:08.275Z,2.80
2023-02-24T05:31:39.762Z,2.80
2023-02-24T05:34:12.104Z,3.10
2023-02-24T05:36:43.532Z,2.78
2023-02-24T05:39:14.976Z,2.63
2023-02-24T05:41:49.483Z,2.90
2023-02-24T05:44:22.434Z,3.10
2023-02-24T05:46:56.620Z,2.60
2023-02-24T05:49:30.655Z,2.65
2023-02-24T05:52:08.110Z,3.20
2023-02-24T05:54:44.040Z,2.95
2023-02-24T05:57:18.476Z,2.90
2023-02-24T05:59:50.901Z,2.97
2023-02-24T06:02:22.406Z,2.70
2023-02-24T06:04:54.361Z,2.70
2023-02-24T06:07:28.636Z,2.40
2023-02-24T06:10:01.760Z,3.10
2023-02-24T06:12:34.882Z,3.00
2023-02-24T06:15:06.701Z,3.00
2023-02-24T06:17:38.156Z,3.10
2023-02-24T06:20:10.265Z,2.83
2023-02-24T06:22:41.890Z,2.92
2023-02-24T06:25:13.342Z,2.80
2023-02-24T06:27:44.851Z,2.67
2023-02-24T06:30:16.466Z,3.10
2023-02-24T06:32:48.988Z,3.00
2023-02-24T06:35:20.812Z,3.00
2023-02-24T06:37:52.281Z,3.20
2023-02-24T06:40:23.777Z,2.88
2023-02-24T06:42:55.268Z,3.50
2023-02-24T06:45:26.752Z,3.00
2023-02-24T06:47:58.198Z,3.03
2023-02-24T06:50:29.620Z,2.60
2023-02-24T06:53:01.176Z,3.37
2023-02-24T06:55:32.655Z,3.30
2023-02-24T06:58:04.083Z,3.15
2023-02-24T07:00:35.486Z,3.60
2023-02-24T07:03:10.352Z,3.35
2023-02-24T07:05:50.170Z,3.33
2023-02-24T07:08:24.030Z,3.65
2023-02-24T07:10:57.537Z,3.90
2023-02-24T07:13:29.010Z,3.75
2023-02-24T07:16:01.460Z,3.58
2023-02-24T07:18:37.235Z,3.53
2023-02-24T07:21:11.292Z,3.88
2023-02-24T07:23:45.423Z,3.40
2023-02-24T07:26:19.335Z,3.90
2023-02-24T07:28:52.306Z,4.05
2023-02-24T07:31:25.158Z,4.28
2023-02-24T07:33:57.367Z,3.45
2023-02-24T07:36:29.721Z,3.42
2023-02-24T07:39:01.185Z,4.00
2023-02-24T07:41:32.588Z,3.60
2023-02-24T07:44:04.162Z,3.63
2023-02-24T07:46:35.680Z,3.10
2023-02-24T07:49:07.219Z,3.42
2023-02-24T07:51:38.658Z,3.42
2023-02-24T07:54:11.045Z,4.03
2023-02-24T07:56:42.506Z,3.45
2023-02-24T07:59:14.463Z,3.25
2023-02-24T08:01:45.918Z,3.60
2023-02-24T08:04:20.849Z,3.72
2023-02-24T08:06:52.752Z,3.63
2023-02-24T08:09:29.944Z,3.45
2023-02-24T08:12:01.359Z,3.60
2023-02-24T08:14:32.898Z,3.53
2023-02-24T08:17:04.334Z,3.63
2023-02-24T08:19:35.774Z,3.95
2023-02-24T08:22:09.962Z,4.00
2023-02-24T08:24:41.431Z,3.55
2023-02-24T08:27:13.138Z,4.22
2023-02-24T08:29:48.432Z,3.85
2023-02-24T08:32:20.938Z,4.38
2023-02-24T08:34:52.945Z,3.67
2023-02-24T08:37:25.190Z,3.75
2023-02-24T08:39:56.836Z,4.38
2023-02-24T08:42:28.285Z,4.30
2023-02-24T08:44:59.788Z,3.90
2023-02-24T08:47:31.226Z,3.88
2023-02-24T08:50:02.829Z,3.80
2023-02-24T08:52:34.409Z,4.68
2023-02-24T08:55:06.379Z,4.22
2023-02-24T08:57:37.844Z,3.65
2023-02-24T09:00:10.087Z,4.07
2023-02-24T09:02:41.545Z,4.27
2023-02-24T09:05:14.631Z,4.00
2023-02-24T09:07:46.206Z,4.15
2023-02-24T09:10:19.054Z,3.97
2023-02-24T09:12:50.506Z,3.85
2023-02-24T09:15:21.989Z,4.60
2023-02-24T09:17:53.502Z,4.60
2023-02-24T09:20:25.003Z,5.25
2023-02-24T09:22:58.623Z,4.65
2023-02-24T09:25:32.098Z,4.97
2023-02-24T09:28:09.718Z,5.57
2023-02-24T09:30:43.522Z,4.63
2023-02-24T09:33:18.922Z,4.73
2023-02-24T09:36:02.010Z,5.97
2023-02-24T09:38:33.464Z,6.95
2023-02-24T09:41:21.551Z,7.65
2023-02-24T09:43:52.966Z,8.25
2023-02-24T09:46:24.729Z,8.60
2023-02-24T09:49:11.859Z,9.20
2023-02-24T09:51:44.520Z,10.05
2023-02-24T09:54:19.912Z,8.95
2023-02-24T09:56:58.638Z,10.43
2023-02-24T09:59:39.419Z,10.18
2023-02-24T10:02:33.810Z,12.07
2023-02-24T10:05:20.528Z,12.30
2023-02-24T10:07:52.167Z,12.13
2023-02-24T10:10:28.777Z,12.15
2023-02-24T10:13:12.364Z,11.80
2023-02-24T10:15:46.720Z,15.75
2023-02-24T10:18:29.250Z,12.70
2023-02-24T10:21:21.272Z,12.35
2023-02-24T10:24:15.589Z,12.43
2023-02-24T10:27:17.648Z,11.83
2023-02-24T10:29:52.429Z,11.73
2023-02-24T10:32:35.203Z,14.10
2023-02-24T10:35:14.099Z,12.73
2023-02-24T10:37:45.865Z,11.93
2023-02-24T10:40:17.681Z,11.23
2023-02-24T10:42:49.123Z,11.30
2023-02-24T10:45:26.350Z,11.13
2023-02-24T10:47:59.871Z,12.13
2023-02-24T10:50:54.901Z,11.90
2023-02-24T10:53:28.267Z,11.05
2023-02-24T10:56:03.370Z,13.00
2023-02-24T10:58:35.942Z,12.00
2023-02-24T11:01:20.038Z,12.02
2023-02-24T11:03:54.465Z,10.80
2023-02-24T11:06:26.767Z,9.50
2023-02-24T11:08:58.637Z,11.77
2023-02-24T11:11:35.002Z,11.02
2023-02-24T11:14:17.043Z,10.03
2023-02-24T11:16:55.413Z,8.45
2023-02-24T11:19:32.829Z,9.55
2023-02-24T11:22:04.518Z,11.25
2023-02-24T11:24:37.636Z,12.90
2023-02-24T11:27:10.788Z,11.85
2023-02-24T11:30:14.287Z,11.73
2023-02-24T11:33:03.778Z,11.90
2023-02-24T11:35:58.697Z,12.40
2023-02-24T11:38:50.345Z,11.65
2023-02-24T11:41:28.630Z,12.02
2023-02-24T11:44:27.139Z,11.75
2023-02-24T11:47:13.220Z,10.70
2023-02-24T11:49:51.428Z,9.68
2023-02-24T11:52:29.956Z,10.48
2023-02-24T11:55:05.014Z,8.93
2023-02-24T11:57:43.459Z,7.88
2023-02-24T12:00:19.574Z,7.63
2023-02-24T12:03:29.730Z,6.85
2023-02-24T12:06:14.151Z,6.93
2023-02-24T12:08:51.628Z,6.07
2023-02-24T12:11:33.331Z,6.18
2023-02-24T12:14:21.542Z,6.00
2023-02-24T12:17:19.120Z,6.15
2023-02-24T12:20:18.279Z,6.43
2023-02-24T12:23:00.995Z,7.00
2023-02-24T12:25:46.063Z,6.68
2023-02-24T12:28:40.583Z,6.45
2023-02-24T12:31:42.320Z,6.32
2023-02-24T12:34:32.378Z,5.88
2023-02-24T12:37:13.792Z,5.68
2023-02-24T12:39:59.410Z,5.83
2023-02-24T12:42:46.710Z,6.13
2023-02-24T12:45:26.418Z,6.97
2023-02-24T12:48:17.422Z,7.82
2023-02-24T12:51:00.507Z,7.60
2023-02-24T12:53:46.563Z,7.32
2023-02-24T12:56:20.806Z,7.38
2023-02-24T12:58:57.941Z,7.43
2023-02-24T13:01:39.386Z,7.82
2023-02-24T13:04:33.852Z,6.97
2023-02-24T13:07:21.603Z,7.68
2023-02-24T13:10:08.348Z,7.70
2023-02-24T13:12:48.788Z,8.38
2023-02-24T13:15:25.799Z,7.60
2023-02-24T13:17:58.432Z,8.18
2023-02-24T13:20:35.370Z,7.93
2023-02-24T13:23:21.381Z,7.78
2023-02-24T13:25:55.438Z,8.00
2023-02-24T13:28:32.740Z,8.27
2023-02-24T13:31:07.397Z,7.57
2023-02-24T13:33:44.118Z,7.87
2023-02-24T13:36:21.977Z,7.28
2023-02-24T13:39:21.814Z,6.82
2023-02-24T13:42:06.114Z,6.47
2023-02-24T13:44:49.695Z,6.90
2023-02-24T13:47:49.569Z,6.90
2023-02-24T13:50:24.848Z,4.85
2023-02-24T13:53:08.400Z,4.20
2023-02-24T13:56:01.936Z,4.47
2023-02-24T13:58:52.000Z,4.28
2023-02-24T14:01:27.965Z,4.18
2023-02-24T14:04:16.626Z,4.75
2023-02-24T14:06:58.419Z,4.53
2023-02-24T14:09:35.118Z,3.85
2023-02-24T14:12:14.570Z,5.07
2023-02-24T14:14:47.565Z,5.32
2023-02-24T14:17:37.766Z,5.05
2023-02-24T14:20:15.033Z,4.97
2023-02-24T14:22:52.815Z,5.15
2023-02-24T14:25:30.379Z,4.90
2023-02-24T14:28:01.967Z,4.55
2023-02-24T14:30:37.058Z,4.40
2023-02-24T14:33:24.300Z,4.77
2023-02-24T14:35:56.081Z,4.22
2023-02-24T14:38:34.874Z,3.90
2023-02-24T14:41:17.071Z,3.90
2023-02-24T14:43:49.317Z,4.20
2023-02-24T14:46:21.592Z,4.28
2023-02-24T14:48:55.522Z,4.43
2023-02-24T14:51:32.905Z,4.55
2023-02-24T14:54:11.773Z,4.50
2023-02-24T14:56:43.287Z,4.60
2023-02-24T14:59:29.557Z,4.77
2023-02-24T15:02:04.372Z,4.13
2023-02-24T15:04:38.248Z,3.97
2023-02-24T15:07:36.212Z,3.40
2023-02-24T15:10:21.429Z,2.90
2023-02-24T15:13:12.972Z,3.43
2023-02-24T15:15:44.593Z,2.97
2023-02-24T15:18:27.508Z,2.13
2023-02-24T15:21:04.701Z,2.40
2023-02-24T15:23:37.815Z,2.25
2023-02-24T15:26:25.587Z,2.20
2023-02-24T15:28:58.933Z,2.67
2023-02-24T15:31:30.679Z,2.30
2023-02-24T15:34:02.525Z,2.67
2023-02-24T15:36:36.042Z,3.05
2023-02-24T15:39:09.267Z,3.13
2023-02-24T15:41:43.294Z,3.17
2023-02-24T15:44:26.243Z,2.87
2023-02-24T15:46:59.213Z,2.67
2023-02-24T15:49:30.666Z,2.67
2023-02-24T15:52:02.105Z,2.40
2023-02-24T15:54:39.222Z,2.80
2023-02-24T15:57:14.984Z,2.60
2023-02-24T15:59:46.893Z,3.17
2023-02-24T16:02:20.847Z,2.90
2023-02-24T16:04:52.776Z,3.28
2023-02-24T16:07:33.808Z,3.22
2023-02-24T16:10:06.321Z,3.53
2023-02-24T16:12:48.890Z,3.15
2023-02-24T16:15:25.604Z,3.58
2023-02-24T16:17:57.571Z,3.72
2023-02-24T16:20:30.862Z,3.80
2023-02-24T16:23:05.280Z,3.63
2023-02-24T16:25:44.226Z,3.45
2023-02-24T16:28:17.460Z,4.63
2023-02-24T16:30:50.462Z,3.40
2023-02-24T16:33:22.245Z,4.28
2023-02-24T16:35:53.883Z,4.05
2023-02-24T16:38:25.373Z,3.63
2023-02-24T16:40:56.871Z,3.08
2023-02-24T16:43:28.291Z,3.30
2023-02-24T16:46:04.286Z,3.42
2023-02-24T16:48:39.035Z,3.80
2023-02-24T16:51:10.966Z,3.28
2023-02-24T16:53:43.035Z,3.80
2023-02-24T16:56:14.577Z,3.83
2023-02-24T16:58:45.991Z,4.53
2023-02-24T17:01:21.522Z,4.05
2023-02-24T17:03:53.751Z,4.28
2023-02-24T17:06:25.569Z,3.60
2023-02-24T17:08:57.320Z,4.35
2023-02-24T17:11:28.977Z,3.90
2023-02-24T17:14:00.445Z,4.10
2023-02-24T17:16:31.997Z,4.75
2023-02-24T17:19:03.452Z,4.45
2023-02-24T17:21:35.434Z,4.60
2023-02-24T17:24:15.888Z,4.18
2023-02-24T17:26:47.523Z,4.43
2023-02-24T17:29:18.986Z,5.20
2023-02-24T17:31:50.800Z,4.75
2023-02-24T17:34:22.461Z,3.17
2023-02-24T17:36:53.901Z,2.67
2023-02-24T17:39:25.532Z,2.70
2023-02-24T17:41:56.931Z,2.42
2023-02-24T17:44:28.647Z,2.92
2023-02-24T17:47:00.060Z,3.28
2023-02-24T17:49:32.507Z,3.10
2023-02-24T17:52:06.184Z,3.72
2023-02-24T17:54:37.741Z,3.42
2023-02-24T17:57:09.208Z,3.65
2023-02-24T17:59:43.019Z,3.08
2023-02-24T18:02:17.083Z,3.77
2023-02-24T18:04:51.635Z,3.53
2023-02-24T18:07:23.110Z,4.10
2023-02-24T18:09:54.582Z,3.47
2023-02-24T18:12:26.906Z,3.65
2023-02-24T18:15:07.888Z,3.78
2023-02-24T18:17:42.597Z,3.75
2023-02-24T18:20:14.078Z,3.33
2023-02-24T18:22:45.555Z,3.78
2023-02-24T18:25:16.981Z,3.50
2023-02-24T18:27:48.411Z,4.22
2023-02-24T18:30:19.894Z,5.07
2023-02-24T18:32:51.521Z,4.70
2023-02-24T18:35:23.260Z,5.65
2023-02-24T18:37:54.676Z,5.10
2023-02-24T18:40:26.778Z,5.00
2023-02-24T18:42:58.317Z,4.88
2023-02-24T18:45:30.858Z,5.18
2023-02-24T18:48:02.309Z,5.30
2023-02-24T18:50:33.835Z,5.20
2023-02-24T18:53:05.451Z,5.30
2023-02-24T18:55:36.914Z,5.53
2023-02-24T18:58:08.375Z,4.83
2023-02-24T19:00:40.079Z,5.13
2023-02-24T19:03:11.791Z,5.18
2023-02-24T19:05:43.402Z,4.63
2023-02-24T19:08:14.957Z,5.40
2023-02-24T19:10:46.421Z,5.13
2023-02-24T19:13:17.847Z,4.60
2023-02-24T19:15:49.623Z,5.10
2023-02-24T19:18:21.069Z,5.10
2023-02-24T19:20:52.535Z,4.97
2023-02-24T19:23:24.033Z,5.10
2023-02-24T19:25:55.516Z,4.20
2023-02-24T19:28:26.994Z,4.35
2023-02-24T19:30:58.529Z,4.22
2023-02-24T19:33:29.989Z,4.63
2023-02-24T19:36:01.468Z,4.72
2023-02-24T19:38:32.917Z,4.55
2023-02-24T19:41:04.546Z,4.70
2023-02-24T19:43:36.191Z,4.82
2023-02-24T19:46:09.887Z,5.53
2023-02-24T19:48:41.871Z,6.20
2023-02-24T19:51:19.659Z,5.30
2023-02-24T19:53:56.197Z,6.07
2023-02-24T19:56:30.979Z,5.40
2023-02-24T19:59:05.154Z,5.10
2023-02-24T20:01:36.711Z,4.93
2023-02-24T20:04:08.695Z,5.28
2023-02-24T20:06:41.186Z,5.70
2023-02-24T20:09:15.597Z,5.30
2023-02-24T20:11:49.507Z,5.55
2023-02-24T20:14:20.917Z,5.68
2023-02-24T20:16:52.440Z,5.43
2023-02-24T20:19:23.917Z,5.72
2023-02-24T20:21:55.335Z,5.45
2023-02-24T20:24:27.151Z,5.15
2023-02-24T20:26:58.550Z,5.28
2023-02-24T20:29:31.255Z,4.43
2023-02-24T20:32:03.444Z,3.10
2023-02-24T20:34:36.378Z,3.15
2023-02-24T20:37:07.856Z,3.00
2023-02-24T20:39:39.247Z,2.80
2023-02-24T20:42:10.716Z,2.60
2023-02-24T20:44:42.166Z,2.38
2023-02-24T20:47:13.586Z,2.72
2023-02-24T20:49:45.020Z,2.35
2023-02-24T20:52:16.500Z,2.83
2023-02-24T20:54:47.912Z,3.08
2023-02-24T20:57:19.432Z,3.00
2023-02-24T21:00:02.847Z,2.80
2023-02-24T21:02:36.009Z,3.53
2023-02-24T21:05:09.499Z,3.40
2023-02-24T21:07:40.984Z,3.67
2023-02-24T21:10:12.557Z,3.72
2023-02-24T21:12:44.139Z,4.78
2023-02-24T21:15:15.835Z,4.30
2023-02-24T21:17:47.228Z,3.83
2023-02-24T21:20:18.761Z,3.90
2023-02-24T21:22:50.207Z,4.22
2023-02-24T21:25:21.652Z,4.82
2023-02-24T21:27:54.158Z,5.07
2023-02-24T21:30:25.587Z,4.75
2023-02-24T21:32:57.023Z,4.68
2023-02-24T21:35:28.424Z,3.92
2023-02-24T21:37:59.942Z,4.57
2023-02-24T21:40:32.516Z,3.05
2023-02-24T21:43:04.474Z,3.27
2023-02-24T21:45:35.936Z,3.40
2023-02-24T21:48:07.352Z,3.15
2023-02-24T21:50:38.806Z,2.93
2023-02-24T21:53:10.338Z,3.03
2023-02-24T21:55:41.733Z,3.47
2023-02-24T21:58:13.155Z,3.80
2023-02-24T22:00:44.552Z,3.28
2023-02-24T22:03:16.022Z,3.35
2023-02-24T22:05:48.013Z,3.63
2023-02-24T22:08:19.902Z,4.50
2023-02-24T22:10:59.851Z,3.63
2023-02-24T22:13:31.339Z,3.63
2023-02-24T22:16:06.377Z,3.72
2023-02-24T22:18:37.893Z,4.75
2023-02-24T22:21:12.136Z,3.33
2023-02-24T22:23:45.695Z,2.90
2023-02-24T22:26:18.783Z,3.28
2023-02-24T22:28:50.249Z,2.60
2023-02-24T22:31:25.441Z,3.60
2023-02-24T22:33:57.456Z,2.90
2023-02-24T22:36:34.587Z,2.42
2023-02-24T22:39:06.886Z,2.05
2023-02-24T22:41:38.588Z,2.08
2023-02-24T22:44:10.275Z,1.67
2023-02-24T22:46:41.778Z,2.40
2023-02-24T22:49:13.321Z,2.17
2023-02-24T22:51:44.779Z,3.35
2023-02-24T22:54:16.408Z,3.37
2023-02-24T22:56:47.980Z,3.20
2023-02-24T22:59:19.452Z,3.65
2023-02-24T23:01:50.910Z,4.05
2023-02-24T23:04:22.356Z,4.15
2023-02-24T23:06:53.813Z,4.03
2023-02-24T23:09:25.273Z,4.53
2023-02-24T23:11:56.680Z,4.65
2023-02-24T23:14:28.140Z,4.63
2023-02-24T23:16:59.574Z,4.82
2023-02-24T23:19:31.027Z,4.07
2023-02-24T23:22:02.557Z,4.65
2023-02-24T23:24:34.051Z,3.92
2023-02-24T23:27:05.499Z,4.43
2023-02-24T23:29:37.008Z,4.43
2023-02-24T23:32:08.573Z,4.85
2023-02-24T23:34:40.071Z,4.68
2023-02-24T23:37:11.484Z,4.20
2023-02-24T23:39:42.881Z,4.32
2023-02-24T23:42:14.287Z,4.43
2023-02-24T23:44:47.103Z,5.65
2023-02-24T23:47:18.572Z,4.25
2023-02-24T23:49:50.059Z,5.37
2023-02-24T23:52:21.530Z,4.43
2023-02-24T23:54:53.018Z,4.07
2023-02-24T23:57:24.477Z,4.10
2023-02-24T23:59:55.939Z,3.72
